createdAt,value
2022-12-20T00:01:45.021Z,8.70
2022-12-20T00:04:12.826Z,8.70
2022-12-20T00:06:41.356Z,8.70
2022-12-20T00:09:11.541Z,8.70
2022-12-20T00:11:43.416Z,8.80
2022-12-20T00:14:10.668Z,8.80
2022-12-20T00:16:38.203Z,8.80
2022-12-20T00:19:07.891Z,8.80
2022-12-20T00:21:36.249Z,8.80
2022-12-20T00:24:05.178Z,8.80
2022-12-20T00:26:35.085Z,8.90
2022-12-20T00:29:02.643Z,8.90
2022-12-20T00:31:31.972Z,8.90
2022-12-20T00:34:01.634Z,8.90
2022-12-20T00:36:31.646Z,8.90
2022-12-20T00:39:00.593Z,8.80
2022-12-20T00:41:33.302Z,8.90
2022-12-20T00:44:00.793Z,9.00
2022-12-20T00:46:28.340Z,9.10
2022-12-20T00:48:55.968Z,9.00
2022-12-20T00:51:29.361Z,9.10
2022-12-20T00:53:56.491Z,9.20
2022-12-20T00:56:23.644Z,9.20
2022-12-20T00:58:54.773Z,9.20
2022-12-20T01:01:25.156Z,9.30
2022-12-20T01:03:53.597Z,9.30
2022-12-20T01:06:22.098Z,9.30
2022-12-20T01:08:48.797Z,9.30
2022-12-20T01:11:23.115Z,9.30
2022-12-20T01:13:54.597Z,9.40
2022-12-20T01:16:26.935Z,9.40
2022-12-20T01:18:55.536Z,9.40
2022-12-20T01:21:27.294Z,9.40
2022-12-20T01:23:55.509Z,9.40
2022-12-20T01:26:26.171Z,9.50
2022-12-20T01:28:59.281Z,9.40
2022-12-20T01:31:28.797Z,9.40
2022-12-20T01:33:59.420Z,9.40
2022-12-20T01:36:31.661Z,9.40
2022-12-20T01:39:08.593Z,9.40
2022-12-20T01:41:37.586Z,9.30
2022-12-20T01:44:24.221Z,9.30
2022-12-20T01:46:52.632Z,9.40
2022-12-20T01:49:32.349Z,9.30
2022-12-20T01:52:09.305Z,9.30
2022-12-20T01:55:05.422Z,9.30
2022-12-20T01:57:49.156Z,9.30
2022-12-20T02:00:17.270Z,9.20
2022-12-20T02:02:47.868Z,9.20
2022-12-20T02:05:18.999Z,9.20
2022-12-20T02:07:52.135Z,9.30
2022-12-20T02:10:24.502Z,9.20
2022-12-20T02:13:03.674Z,9.20
2022-12-20T02:16:01.187Z,9.20
2022-12-20T02:18:47.468Z,9.10
2022-12-20T02:21:39.438Z,9.10
2022-12-20T02:24:40.029Z,9.20
2022-12-20T02:27:44.879Z,9.10
2022-12-20T02:30:23.975Z,9.20
2022-12-20T02:33:08.479Z,9.20
2022-12-20T02:35:39.314Z,9.30
2022-12-20T02:38:32.717Z,9.20
2022-12-20T02:41:11.187Z,9.20
2022-12-20T02:44:02.991Z,9.30
2022-12-20T02:46:32.289Z,9.30
2022-12-20T02:49:07.226Z,9.20
2022-12-20T02:51:34.928Z,9.20
2022-12-20T02:54:02.440Z,9.30
2022-12-20T02:57:00.556Z,9.30
2022-12-20T02:59:42.729Z,9.20
2022-12-20T03:02:11.022Z,9.20
2022-12-20T03:04:41.892Z,9.30
2022-12-20T03:07:13.845Z,9.20
2022-12-20T03:09:43.792Z,9.20
2022-12-20T03:12:13.231Z,9.20
2022-12-20T03:14:40.762Z,9.20
2022-12-20T03:17:10.041Z,9.20
2022-12-20T03:19:36.895Z,9.20
2022-12-20T03:22:03.963Z,9.20
2022-12-20T03:24:32.511Z,9.20
2022-12-20T03:27:00.104Z,9.20
2022-12-20T03:29:27.152Z,9.20
2022-12-20T03:31:53.958Z,9.20
2022-12-20T03:34:20.688Z,9.20
2022-12-20T03:36:47.585Z,9.20
2022-12-20T03:39:14.285Z,9.30
2022-12-20T03:41:41.174Z,9.30
2022-12-20T03:44:08.257Z,9.30
2022-12-20T03:46:35.138Z,9.20
2022-12-20T03:49:01.903Z,9.30
2022-12-20T03:51:28.705Z,9.30
2022-12-20T03:53:55.632Z,9.30
2022-12-20T03:56:22.521Z,9.30
2022-12-20T03:58:49.337Z,9.30
2022-12-20T04:01:27.092Z,9.40
2022-12-20T04:03:54.192Z,9.30
2022-12-20T04:06:22.637Z,9.40
2022-12-20T04:08:51.552Z,9.50
2022-12-20T04:11:18.636Z,9.40
2022-12-20T04:13:52.641Z,9.40
2022-12-20T04:16:24.019Z,9.50
2022-12-20T04:18:50.964Z,9.60
2022-12-20T04:21:23.840Z,9.50
2022-12-20T04:23:51.027Z,9.50
2022-12-20T04:26:18.088Z,9.60
2022-12-20T04:28:44.910Z,9.70
2022-12-20T04:31:13.517Z,9.70
2022-12-20T04:33:41.842Z,9.70
2022-12-20T04:36:10.200Z,9.70
2022-12-20T04:38:37.031Z,9.70
2022-12-20T04:41:03.859Z,9.70
2022-12-20T04:43:30.672Z,9.80
2022-12-20T04:45:57.752Z,9.70
2022-12-20T04:51:14.938Z,9.90
2022-12-20T04:53:48.070Z,9.80
2022-12-20T04:56:28.527Z,9.90
2022-12-20T04:58:58.274Z,9.90
2022-12-20T05:01:25.894Z,10.00
2022-12-20T05:03:53.667Z,9.90
2022-12-20T05:06:20.684Z,10.00
2022-12-20T05:08:50.440Z,10.00
2022-12-20T05:11:17.611Z,9.90
2022-12-20T05:13:44.476Z,9.90
2022-12-20T05:16:11.338Z,10.00
2022-12-20T05:18:43.038Z,9.90
2022-12-20T05:21:39.342Z,9.90
2022-12-20T05:24:25.764Z,9.90
2022-12-20T05:26:52.614Z,9.90
2022-12-20T05:29:19.462Z,9.90
2022-12-20T05:31:46.472Z,9.90
2022-12-20T05:34:13.309Z,9.90
2022-12-20T05:36:39.992Z,9.80
2022-12-20T05:39:06.838Z,9.90
2022-12-20T05:41:33.640Z,9.90
2022-12-20T05:44:00.725Z,9.80
2022-12-20T05:46:27.609Z,9.80
2022-12-20T05:48:54.913Z,9.80
2022-12-20T05:51:21.847Z,9.90
2022-12-20T05:53:48.612Z,9.90
2022-12-20T05:56:15.398Z,9.90
2022-12-20T05:58:42.420Z,9.90
2022-12-20T06:01:10.549Z,9.90
2022-12-20T06:03:40.462Z,9.90
2022-12-20T06:06:13.889Z,9.90
2022-12-20T06:08:44.740Z,9.90
2022-12-20T06:11:11.543Z,10.00
2022-12-20T06:13:38.313Z,10.00
2022-12-20T06:16:05.379Z,10.00
2022-12-20T06:18:32.225Z,10.00
2022-12-20T06:20:59.305Z,10.10
2022-12-20T06:23:28.721Z,10.00
2022-12-20T06:25:55.706Z,10.10
2022-12-20T06:28:22.611Z,10.00
2022-12-20T06:31:12.694Z,10.10
2022-12-20T06:33:39.884Z,10.20
2022-12-20T06:36:07.115Z,10.00
2022-12-20T06:38:34.022Z,10.10
2022-12-20T06:41:00.971Z,10.10
2022-12-20T06:43:28.863Z,10.10
2022-12-20T06:45:55.836Z,10.10
2022-12-20T06:48:22.792Z,10.10
2022-12-20T06:50:55.750Z,10.20
2022-12-20T06:53:25.518Z,10.10
2022-12-20T06:55:52.443Z,10.00
2022-12-20T06:58:20.581Z,10.00
2022-12-20T07:00:47.960Z,10.00
2022-12-20T07:03:15.111Z,10.10
2022-12-20T07:05:42.205Z,10.10
2022-12-20T07:08:10.190Z,10.10
2022-12-20T07:10:38.164Z,10.00
2022-12-20T07:13:05.219Z,10.10
2022-12-20T07:15:32.143Z,10.10
2022-12-20T07:17:59.983Z,10.10
2022-12-20T07:20:27.482Z,10.20
2022-12-20T07:22:54.455Z,10.20
2022-12-20T07:25:21.580Z,10.10
2022-12-20T07:27:50.000Z,10.10
2022-12-20T07:30:21.761Z,10.10
2022-12-20T07:32:48.898Z,10.20
2022-12-20T07:35:16.548Z,10.20
2022-12-20T07:37:43.450Z,10.30
2022-12-20T07:40:12.817Z,10.20
2022-12-20T07:42:46.149Z,10.20
2022-12-20T07:45:16.459Z,10.20
2022-12-20T07:47:43.907Z,10.20
2022-12-20T07:50:12.212Z,10.20
2022-12-20T07:52:44.709Z,10.20
2022-12-20T07:55:13.100Z,10.20
2022-12-20T07:57:52.860Z,10.20
2022-12-20T08:00:20.137Z,10.20
2022-12-20T08:02:53.970Z,10.20
2022-12-20T08:05:22.281Z,10.10
2022-12-20T08:07:55.105Z,10.00
2022-12-20T08:10:27.343Z,10.10
2022-12-20T08:12:56.095Z,10.10
2022-12-20T08:15:23.944Z,10.10
2022-12-20T08:17:51.320Z,10.10
2022-12-20T08:20:18.411Z,10.20
2022-12-20T08:22:45.337Z,10.10
2022-12-20T08:25:12.284Z,10.10
2022-12-20T08:27:39.285Z,10.10
2022-12-20T08:30:08.511Z,10.00
2022-12-20T08:32:36.344Z,10.10
2022-12-20T08:35:05.753Z,10.00
2022-12-20T08:37:33.092Z,10.10
2022-12-20T08:40:00.927Z,10.10
2022-12-20T08:42:28.474Z,10.10
2022-12-20T08:44:56.206Z,10.00
2022-12-20T08:47:25.468Z,10.00
2022-12-20T08:49:52.398Z,10.10
2022-12-20T08:52:19.335Z,10.20
2022-12-20T08:54:46.262Z,10.00
2022-12-20T08:57:13.764Z,10.10
2022-12-20T08:59:40.652Z,10.10
2022-12-20T09:02:07.804Z,10.10
2022-12-20T09:04:35.016Z,10.00
2022-12-20T09:07:02.061Z,10.00
2022-12-20T09:09:29.057Z,10.00
2022-12-20T09:11:56.041Z,10.00
2022-12-20T09:14:23.467Z,10.00
2022-12-20T09:16:50.413Z,10.00
2022-12-20T09:19:17.344Z,10.00
2022-12-20T09:21:44.228Z,10.00
2022-12-20T09:24:11.279Z,10.00
2022-12-20T09:26:38.385Z,10.00
2022-12-20T09:29:05.796Z,10.00
2022-12-20T09:31:32.975Z,10.00
2022-12-20T09:34:01.182Z,10.00
2022-12-20T09:36:30.106Z,10.00
2022-12-20T09:38:59.157Z,9.90
2022-12-20T09:41:37.290Z,10.00
2022-12-20T09:44:26.227Z,9.90
2022-12-20T09:47:09.805Z,10.00
2022-12-20T09:49:45.744Z,10.00
2022-12-20T09:52:58.037Z,10.00
2022-12-20T09:55:54.876Z,10.00
2022-12-20T09:59:26.866Z,10.00
2022-12-20T10:01:54.014Z,10.00
2022-12-20T10:04:31.436Z,9.90
2022-12-20T10:07:11.838Z,10.00
2022-12-20T10:10:18.500Z,9.90
2022-12-20T10:13:25.202Z,10.00
2022-12-20T10:16:23.650Z,10.00
2022-12-20T10:19:19.611Z,10.00
2022-12-20T10:22:01.336Z,10.10
2022-12-20T10:24:32.929Z,10.00
2022-12-20T10:27:21.523Z,10.00
2022-12-20T10:29:51.898Z,10.10
2022-12-20T10:32:23.535Z,10.00
2022-12-20T10:35:10.706Z,10.10
2022-12-20T10:37:44.340Z,10.10
2022-12-20T10:41:10.339Z,10.10
2022-12-20T10:43:26.140Z,10.10
2022-12-20T10:46:03.517Z,10.10
2022-12-20T10:48:40.648Z,10.10
2022-12-20T10:51:15.514Z,10.10
2022-12-20T10:54:20.086Z,10.10
2022-12-20T10:57:00.666Z,10.10
2022-12-20T10:59:36.708Z,10.10
2022-12-20T11:02:40.771Z,10.20
2022-12-20T11:05:12.332Z,10.20
2022-12-20T11:10:46.257Z,10.20
2022-12-20T11:13:26.958Z,10.20
2022-12-20T11:15:57.808Z,10.20
2022-12-20T11:18:56.266Z,10.20
2022-12-20T11:21:47.871Z,10.20
2022-12-20T11:24:57.956Z,10.20
2022-12-20T11:28:09.039Z,10.20
2022-12-20T11:31:00.529Z,10.20
2022-12-20T11:34:01.173Z,10.20
2022-12-20T11:37:02.146Z,10.20
2022-12-20T11:40:08.737Z,10.20
2022-12-20T11:42:58.855Z,10.20
2022-12-20T11:45:45.856Z,10.20
2022-12-20T11:48:51.137Z,10.30
2022-12-20T11:51:30.331Z,10.20
2022-12-20T11:54:12.374Z,10.30
2022-12-20T11:56:45.348Z,10.20
2022-12-20T11:59:38.859Z,10.30
2022-12-20T12:02:22.360Z,10.30
2022-12-20T12:05:21.809Z,10.30
2022-12-20T12:07:59.496Z,10.30
2022-12-20T12:10:57.856Z,10.30
2022-12-20T12:13:33.519Z,10.30
2022-12-20T12:16:31.109Z,10.30
2022-12-20T12:19:01.486Z,10.40
2022-12-20T12:21:44.429Z,10.40
2022-12-20T12:24:35.853Z,10.30
2022-12-20T12:27:03.119Z,10.40
2022-12-20T12:29:34.069Z,10.40
2022-12-20T12:32:10.679Z,10.40
2022-12-20T12:34:49.429Z,10.40
2022-12-20T12:38:04.021Z,10.40
2022-12-20T12:40:54.976Z,10.40
2022-12-20T12:43:40.465Z,10.40
2022-12-20T12:46:22.906Z,10.40
2022-12-20T12:49:17.680Z,10.40
2022-12-20T12:51:54.092Z,10.40
2022-12-20T12:54:41.433Z,10.40
2022-12-20T12:57:17.032Z,10.50
2022-12-20T12:59:51.937Z,10.50
2022-12-20T13:02:20.895Z,10.50
2022-12-20T13:05:10.655Z,10.40
2022-12-20T13:07:39.308Z,10.40
2022-12-20T13:10:25.564Z,10.50
2022-12-20T13:12:52.828Z,10.50
2022-12-20T13:15:19.649Z,10.50
2022-12-20T13:17:53.794Z,10.50
2022-12-20T13:20:28.011Z,10.40
2022-12-20T13:23:12.768Z,10.50
2022-12-20T13:25:47.197Z,10.50
2022-12-20T13:28:19.805Z,10.50
2022-12-20T13:31:09.973Z,10.50
2022-12-20T13:33:53.974Z,10.40
2022-12-20T13:36:37.965Z,10.50
2022-12-20T13:39:37.983Z,10.50
2022-12-20T13:42:37.141Z,10.50
2022-12-20T13:45:11.283Z,10.50
2022-12-20T13:47:52.251Z,10.50
2022-12-20T13:50:26.294Z,10.50
2022-12-20T13:52:55.327Z,10.50
2022-12-20T13:55:33.675Z,10.50
2022-12-20T13:58:34.395Z,10.50
2022-12-20T14:01:13.107Z,10.50
2022-12-20T14:03:48.083Z,10.60
2022-12-20T14:06:26.090Z,10.60
2022-12-20T14:08:54.381Z,10.60
2022-12-20T14:11:27.113Z,10.60
2022-12-20T14:13:57.896Z,10.50
2022-12-20T14:16:28.341Z,10.60
2022-12-20T14:18:58.210Z,10.60
2022-12-20T14:21:26.693Z,10.50
2022-12-20T14:23:59.715Z,10.60
2022-12-20T14:26:45.699Z,10.60
2022-12-20T14:29:23.650Z,10.60
2022-12-20T14:31:51.107Z,10.50
2022-12-20T14:34:29.712Z,10.50
2022-12-20T14:37:36.145Z,10.60
2022-12-20T14:40:12.529Z,10.60
2022-12-20T14:42:41.388Z,10.60
2022-12-20T14:45:14.109Z,10.50
2022-12-20T14:48:03.533Z,10.50
2022-12-20T14:50:35.166Z,10.50
2022-12-20T14:53:03.353Z,10.50
2022-12-20T14:55:45.439Z,10.60
2022-12-20T14:58:32.268Z,10.50
2022-12-20T15:01:27.119Z,10.50
2022-12-20T15:03:57.990Z,10.50
2022-12-20T15:06:53.723Z,10.50
2022-12-20T15:09:22.221Z,10.50
2022-12-20T15:11:51.738Z,10.40
2022-12-20T15:14:42.639Z,10.40
2022-12-20T15:17:14.565Z,10.40
2022-12-20T15:19:43.042Z,10.50
2022-12-20T15:22:18.514Z,10.50
2022-12-20T15:24:47.728Z,10.40
2022-12-20T15:27:15.952Z,10.40
2022-12-20T15:29:43.373Z,10.40
2022-12-20T15:32:29.851Z,10.40
2022-12-20T15:34:57.068Z,10.40
2022-12-20T15:37:26.269Z,10.40
2022-12-20T15:39:53.144Z,10.40
2022-12-20T15:42:23.398Z,10.40
2022-12-20T15:44:50.657Z,10.40
2022-12-20T15:47:19.879Z,10.30
2022-12-20T15:49:50.490Z,10.40
2022-12-20T15:52:23.907Z,10.30
2022-12-20T15:54:51.156Z,10.40
2022-12-20T15:57:18.133Z,10.30
2022-12-20T16:00:03.469Z,10.30
2022-12-20T16:02:33.344Z,10.30
2022-12-20T16:05:01.542Z,10.40
2022-12-20T16:07:28.525Z,10.30
2022-12-20T16:09:55.533Z,10.30
2022-12-20T16:12:35.470Z,10.30
2022-12-20T16:15:02.622Z,10.30
2022-12-20T16:17:29.597Z,10.30
2022-12-20T16:19:56.512Z,10.30
2022-12-20T16:22:24.965Z,10.30
2022-12-20T16:24:54.002Z,10.30
2022-12-20T16:27:21.630Z,10.30
2022-12-20T16:29:48.545Z,10.30
2022-12-20T16:32:19.096Z,10.30
2022-12-20T16:34:46.493Z,10.30
2022-12-20T16:37:13.892Z,10.30
2022-12-20T16:39:42.285Z,10.30
2022-12-20T16:42:22.269Z,10.30
2022-12-20T16:44:54.309Z,10.30
2022-12-20T16:47:21.787Z,10.30
2022-12-20T16:49:52.857Z,10.30
2022-12-20T16:52:22.860Z,10.30
2022-12-20T16:54:50.535Z,10.30
2022-12-20T16:57:17.590Z,10.30
2022-12-20T16:59:44.650Z,10.30
2022-12-20T17:02:41.099Z,10.20
2022-12-20T17:05:22.050Z,10.20
2022-12-20T17:07:49.282Z,10.20
2022-12-20T17:10:17.287Z,10.20
2022-12-20T17:12:45.432Z,10.30
2022-12-20T17:15:26.541Z,10.30
2022-12-20T17:17:54.284Z,10.30
2022-12-20T17:20:24.931Z,10.30
2022-12-20T17:22:54.958Z,10.30
2022-12-20T17:25:32.913Z,10.30
2022-12-20T17:27:59.756Z,10.30
2022-12-20T17:30:26.673Z,10.30
2022-12-20T17:32:54.190Z,10.20
2022-12-20T17:35:30.547Z,10.20
2022-12-20T17:37:58.353Z,10.30
2022-12-20T17:40:29.354Z,10.20
2022-12-20T17:42:58.715Z,10.30
2022-12-20T17:45:36.074Z,10.30
2022-12-20T17:48:03.119Z,10.20
2022-12-20T17:50:30.001Z,10.20
2022-12-20T17:52:56.945Z,10.30
2022-12-20T17:55:28.753Z,10.30
2022-12-20T17:57:56.462Z,10.30
2022-12-20T18:00:38.546Z,10.20
2022-12-20T18:03:30.211Z,10.20
2022-12-20T18:06:01.019Z,10.30
2022-12-20T18:08:34.161Z,10.20
2022-12-20T18:11:01.008Z,10.20
2022-12-20T18:13:29.053Z,10.30
2022-12-20T18:15:59.029Z,10.30
2022-12-20T18:18:25.824Z,10.30
2022-12-20T18:21:06.077Z,10.20
2022-12-20T18:23:37.139Z,10.20
2022-12-20T18:26:20.947Z,10.20
2022-12-20T18:28:50.939Z,10.20
2022-12-20T18:31:21.699Z,10.20
2022-12-20T18:33:53.861Z,10.20
2022-12-20T18:36:30.219Z,10.20
2022-12-20T18:39:07.220Z,10.30
2022-12-20T18:41:35.565Z,10.20
2022-12-20T18:44:06.644Z,10.20
2022-12-20T18:46:34.539Z,10.20
2022-12-20T18:49:04.637Z,10.20
2022-12-20T18:51:38.043Z,10.20
2022-12-20T18:54:11.882Z,10.20
2022-12-20T18:56:41.791Z,10.20
2022-12-20T18:59:13.062Z,10.20
2022-12-20T19:01:44.652Z,10.30
2022-12-20T19:04:12.030Z,10.20
2022-12-20T19:06:41.831Z,10.20
2022-12-20T19:09:13.226Z,10.20
2022-12-20T19:11:42.089Z,10.20
2022-12-20T19:14:11.437Z,10.20
2022-12-20T19:16:39.849Z,10.10
2022-12-20T19:19:08.817Z,10.10
2022-12-20T19:21:38.086Z,10.10
2022-12-20T19:24:07.972Z,10.10
2022-12-20T19:26:37.063Z,10.10
2022-12-20T19:29:06.032Z,10.20
2022-12-20T19:31:36.431Z,10.10
2022-12-20T19:34:11.579Z,10.10
2022-12-20T19:36:45.592Z,10.10
2022-12-20T19:39:24.741Z,10.10
2022-12-20T19:42:22.533Z,10.10
2022-12-20T19:44:39.428Z,10.10
2022-12-20T19:47:06.540Z,10.10
2022-12-20T19:49:38.791Z,10.20
2022-12-20T19:52:06.886Z,10.10
2022-12-20T19:54:35.119Z,10.10
2022-12-20T19:57:03.898Z,10.10
2022-12-20T19:59:33.662Z,10.10
2022-12-20T20:02:00.793Z,10.10
2022-12-20T20:04:28.140Z,10.00
2022-12-20T20:06:56.324Z,10.00
2022-12-20T20:09:23.185Z,10.10
2022-12-20T20:11:50.660Z,10.00
2022-12-20T20:14:17.359Z,10.00
2022-12-20T20:16:44.230Z,10.00
2022-12-20T20:19:11.150Z,10.10
2022-12-20T20:21:38.095Z,10.00
2022-12-20T20:24:05.572Z,10.00
2022-12-20T20:26:32.446Z,10.00
2022-12-20T20:29:02.117Z,10.00
2022-12-20T20:31:29.570Z,10.00
2022-12-20T20:33:58.562Z,10.00
2022-12-20T20:36:25.529Z,10.00
2022-12-20T20:38:52.361Z,10.00
2022-12-20T20:41:19.731Z,9.90
2022-12-20T20:43:46.587Z,9.90
2022-12-20T20:46:15.947Z,9.90
2022-12-20T20:48:44.958Z,9.90
2022-12-20T20:51:12.662Z,9.90
2022-12-20T20:53:39.750Z,9.90
2022-12-20T20:56:07.765Z,9.90
2022-12-20T20:58:36.674Z,9.90
2022-12-20T21:01:08.417Z,9.90
2022-12-20T21:03:36.188Z,9.90
2022-12-20T21:08:52.819Z,9.90
2022-12-20T21:11:19.736Z,9.90
2022-12-20T21:13:46.661Z,9.80
2022-12-20T21:16:20.590Z,9.80
2022-12-20T21:18:56.564Z,9.90
2022-12-20T21:21:25.182Z,9.80
2022-12-20T21:23:53.191Z,9.80
2022-12-20T21:26:21.854Z,9.80
2022-12-20T21:28:48.653Z,9.80
2022-12-20T21:31:19.352Z,9.80
2022-12-20T21:33:46.380Z,9.90
2022-12-20T21:36:22.940Z,9.90
2022-12-20T21:38:55.488Z,9.80
2022-12-20T21:41:25.637Z,9.80
2022-12-20T21:43:59.411Z,9.80
2022-12-20T21:46:34.694Z,9.80
2022-12-20T21:49:06.822Z,9.80
2022-12-20T21:51:35.318Z,9.80
2022-12-20T21:54:11.893Z,9.80
2022-12-20T21:56:38.927Z,9.80
2022-12-20T21:59:05.786Z,9.80
2022-12-20T22:01:34.493Z,9.80
2022-12-20T22:04:04.423Z,9.80
2022-12-20T22:06:34.207Z,9.80
2022-12-20T22:09:09.162Z,9.80
2022-12-20T22:12:01.225Z,9.80
2022-12-20T22:14:31.052Z,9.80
2022-12-20T22:16:57.938Z,9.70
2022-12-20T22:19:26.936Z,9.70
2022-12-20T22:21:57.945Z,9.70
2022-12-20T22:24:27.860Z,9.70
2022-12-20T22:26:54.724Z,9.70
2022-12-20T22:29:21.823Z,9.70
2022-12-20T22:31:54.746Z,9.60
2022-12-20T22:34:21.609Z,9.60
2022-12-20T22:36:48.359Z,9.60
2022-12-20T22:39:15.257Z,9.60
2022-12-20T22:41:45.422Z,9.60
2022-12-20T22:44:15.387Z,9.60
2022-12-20T22:46:42.133Z,9.60
2022-12-20T22:49:17.489Z,9.60
2022-12-20T22:51:47.350Z,9.50
2022-12-20T22:54:18.054Z,9.50
2022-12-20T22:56:44.770Z,9.50
2022-12-20T22:59:14.596Z,9.50
2022-12-20T23:01:41.457Z,9.50
2022-12-20T23:04:08.980Z,9.50
2022-12-20T23:06:35.804Z,9.50
2022-12-20T23:09:02.622Z,9.50
2022-12-20T23:11:49.043Z,9.50
2022-12-20T23:14:38.537Z,9.40
2022-12-20T23:17:07.822Z,9.30
2022-12-20T23:19:54.160Z,9.40
2022-12-20T23:22:38.368Z,9.40
2022-12-20T23:25:14.253Z,9.40
2022-12-20T23:27:44.271Z,9.40
2022-12-20T23:30:15.317Z,9.40
2022-12-20T23:32:44.292Z,9.40
2022-12-20T23:35:13.510Z,9.40
2022-12-20T23:37:41.019Z,9.40
2022-12-20T23:40:11.604Z,9.30
2022-12-20T23:42:40.261Z,9.40
2022-12-20T23:45:07.807Z,9.30
2022-12-20T23:47:34.556Z,9.30
2022-12-20T23:50:01.244Z,9.30
2022-12-20T23:52:28.247Z,9.30
2022-12-20T23:54:54.968Z,9.30
2022-12-20T23:57:21.695Z,9.20
2022-12-20T23:59:48.440Z,9.20
